Time;durP1;ratioP1;P1;durP2;ratioP2;P2;SDS_P1;SDS_P2;PMS_P1;PMS_P2;Temp;Humidity;BMP_temperature;BMP_pressure;BME280_temperature;BME280_humidity;BME280_pressure;Samples;Min_cycle;Max_cycle;Signal;HPM_P1;HPM_P2
2021/01/14 00:00:41;;;;;;;9.02;3.85;;;1.20;99.90;;;;;;5011375;28;20416;-59
2021/01/14 00:03:12;;;;;;;7.70;2.83;;;1.20;99.90;;;;;;5011653;28;20030;-58
2021/01/14 00:05:39;;;;;;;12.57;4.13;;;1.10;99.90;;;;;;5003785;28;20037;-60
2021/01/14 00:08:06;;;;;;;7.93;3.15;;;1.00;99.90;;;;;;5005387;28;20131;-58
2021/01/14 00:10:32;;;;;;;11.50;4.03;;;0.90;99.90;;;;;;5007996;28;20061;-59
2021/01/14 00:12:58;;;;;;;13.90;4.55;;;0.90;99.90;;;;;;4993413;28;20038;-59
2021/01/14 00:15:23;;;;;;;11.57;3.75;;;0.90;99.90;;;;;;5008956;28;20394;-59
2021/01/14 00:17:49;;;;;;;12.30;3.70;;;1.10;99.90;;;;;;5010920;28;20037;-60
2021/01/14 00:20:18;;;;;;;10.07;3.60;;;1.10;99.90;;;;;;5010594;28;20088;-59
2021/01/14 00:22:44;;;;;;;12.90;4.03;;;1.10;99.90;;;;;;5010315;28;20092;-59
2021/01/14 00:25:12;;;;;;;11.68;3.63;;;1.20;99.90;;;;;;5011635;28;20033;-59
2021/01/14 00:27:38;;;;;;;10.70;3.25;;;1.20;99.90;;;;;;5010157;28;20041;-59
2021/01/14 00:30:13;;;;;;;7.70;3.20;;;1.20;99.90;;;;;;5011340;28;20041;-59
2021/01/14 00:32:39;;;;;;;11.00;3.03;;;1.20;99.90;;;;;;5010146;28;20367;-59
2021/01/14 00:35:06;;;;;;;7.55;2.90;;;1.30;99.90;;;;;;5011072;28;20088;-58
2021/01/14 00:40:18;;;;;;;9.30;2.85;;;1.20;99.90;;;;;;5010949;28;20040;-59
2021/01/14 00:42:44;;;;;;;10.07;3.13;;;1.30;99.90;;;;;;5010566;28;20573;-58
2021/01/14 00:45:11;;;;;;;7.95;2.70;;;1.30;99.90;;;;;;5012523;28;20033;-58
2021/01/14 00:47:37;;;;;;;8.93;3.08;;;1.30;99.90;;;;;;5010046;28;20026;-59
2021/01/14 00:50:07;;;;;;;10.32;2.47;;;1.30;99.90;;;;;;5010763;28;20501;-58
2021/01/14 00:52:33;;;;;;;7.20;3.00;;;1.30;99.90;;;;;;5011270;28;20540;-58
2021/01/14 00:54:58;;;;;;;9.88;3.03;;;1.30;99.90;;;;;;5010779;28;20026;-59
2021/01/14 00:57:24;;;;;;;6.55;2.92;;;1.30;99.90;;;;;;5009584;28;20153;-59
2021/01/14 00:59:50;;;;;;;6.45;2.65;;;1.30;99.90;;;;;;5010729;28;20038;-59
2021/01/14 01:02:15;;;;;;;9.45;3.10;;;1.40;99.90;;;;;;5008925;28;20389;-59
2021/01/14 01:04:41;;;;;;;10.27;4.05;;;1.40;99.90;;;;;;5008078;28;20034;-59
2021/01/14 01:07:07;;;;;;;10.10;4.03;;;1.40;99.90;;;;;;5010412;28;20038;-59
2021/01/14 01:09:33;;;;;;;10.18;3.47;;;1.40;99.90;;;;;;5009694;28;20120;-59
2021/01/14 01:11:59;;;;;;;11.32;4.38;;;1.40;99.90;;;;;;5009063;28;20340;-59
2021/01/14 01:14:24;;;;;;;13.43;4.38;;;1.30;99.90;;;;;;5009209;28;20065;-60
2021/01/14 01:16:56;;;;;;;13.07;6.38;;;1.30;99.90;;;;;;5009852;28;20398;-59
2021/01/14 01:19:22;;;;;;;12.10;5.47;;;1.30;99.90;;;;;;5010445;28;20055;-59
2021/01/14 01:21:48;;;;;;;14.63;6.63;;;1.30;99.90;;;;;;5011700;28;20038;-58
2021/01/14 01:24:14;;;;;;;16.27;6.80;;;1.20;99.90;;;;;;5010175;28;20033;-59
2021/01/14 01:26:40;;;;;;;15.57;7.28;;;1.10;99.90;;;;;;5007453;28;20132;-58
2021/01/14 01:29:06;;;;;;;15.55;7.03;;;1.00;99.90;;;;;;5009939;28;20061;-59
2021/01/14 01:31:32;;;;;;;14.85;6.93;;;1.10;99.90;;;;;;5008458;28;20064;-59
2021/01/14 01:33:57;;;;;;;12.30;5.97;;;1.10;99.90;;;;;;5010195;28;20482;-59
2021/01/14 01:36:23;;;;;;;10.43;4.35;;;1.10;99.90;;;;;;5008642;28;20422;-58
2021/01/14 01:38:49;;;;;;;11.20;4.20;;;1.30;99.90;;;;;;5005324;28;20374;-58
2021/01/14 01:41:14;;;;;;;10.10;3.53;;;1.30;99.90;;;;;;5009055;28;20029;-59
2021/01/14 01:43:40;;;;;;;9.05;3.95;;;1.40;99.90;;;;;;5009672;28;20084;-58
2021/01/14 01:46:06;;;;;;;14.80;4.40;;;1.40;99.90;;;;;;5008626;28;20243;-59
2021/01/14 01:48:32;;;;;;;12.32;3.80;;;1.40;99.90;;;;;;5008306;28;20429;-58
2021/01/14 01:51:01;;;;;;;12.88;4.35;;;1.40;99.90;;;;;;5008550;28;20046;-59
2021/01/14 01:53:29;;;;;;;13.70;4.13;;;1.40;99.90;;;;;;5009799;28;20057;-59
2021/01/14 01:55:55;;;;;;;10.73;4.18;;;1.30;99.90;;;;;;5008696;28;20393;-57
2021/01/14 01:58:22;;;;;;;10.73;4.22;;;1.30;99.90;;;;;;5007449;28;20191;-59
2021/01/14 02:00:48;;;;;;;13.32;4.22;;;1.30;99.90;;;;;;5008463;28;20501;-57
2021/01/14 02:03:15;;;;;;;13.43;3.90;;;1.40;99.90;;;;;;5008763;28;20141;-58
2021/01/14 02:05:40;;;;;;;11.65;4.00;;;1.40;99.90;;;;;;5009675;28;20033;-59
2021/01/14 02:08:19;;;;;;;12.70;4.63;;;1.30;99.90;;;;;;5008417;28;20034;-58
2021/01/14 02:10:58;;;;;;;10.43;4.10;;;1.30;99.90;;;;;;5008354;28;20044;-59
2021/01/14 02:13:42;;;;;;;11.35;4.40;;;1.30;99.90;;;;;;5006708;28;20117;-59
2021/01/14 02:16:09;;;;;;;11.00;4.00;;;1.30;99.90;;;;;;5009388;28;20060;-59
2021/01/14 02:18:36;;;;;;;10.63;3.55;;;1.30;99.90;;;;;;5008746;28;20042;-59
2021/01/14 02:21:07;;;;;;;11.07;4.78;;;1.30;99.90;;;;;;5009212;28;20118;-59
2021/01/14 02:23:48;;;;;;;15.73;6.28;;;1.30;99.90;;;;;;5010252;28;20038;-59
2021/01/14 02:26:22;;;;;;;18.25;9.23;;;1.30;99.90;;;;;;5009589;28;20045;-59
2021/01/14 02:28:49;;;;;;;21.33;8.55;;;1.20;99.90;;;;;;5008883;28;20034;-59
2021/01/14 02:31:15;;;;;;;19.48;9.23;;;1.10;99.90;;;;;;5009177;28;20073;-59
2021/01/14 02:33:42;;;;;;;21.35;8.68;;;1.10;99.90;;;;;;5008155;28;20041;-59
2021/01/14 02:36:08;;;;;;;17.63;8.82;;;1.00;99.90;;;;;;5009242;28;20034;-59
2021/01/14 02:38:35;;;;;;;17.95;8.18;;;1.00;99.90;;;;;;5011802;28;20045;-59
2021/01/14 02:43:30;;;;;;;13.68;7.22;;;1.10;99.90;;;;;;4832732;23;20064;-59
2021/01/14 02:45:56;;;;;;;11.43;5.05;;;1.20;99.90;;;;;;5028553;28;20034;-59
2021/01/14 02:49:01;;;;;;;9.13;4.45;;;1.20;99.90;;;;;;5018383;28;20096;-59
2021/01/14 02:51:51;;;;;;;9.57;4.32;;;1.30;99.90;;;;;;4909728;29;20139;-58
2021/01/14 02:54:17;;;;;;;8.15;3.20;;;1.30;99.90;;;;;;4928432;29;20138;-57
2021/01/14 02:56:48;;;;;;;8.27;3.53;;;1.30;99.90;;;;;;4928587;29;20127;-59
2021/01/14 02:59:14;;;;;;;11.20;4.90;;;1.40;99.90;;;;;;4914333;29;20035;-59
2021/01/14 03:01:39;;;;;;;8.88;3.60;;;1.40;99.90;;;;;;4909765;29;20047;-59
2021/01/14 03:04:05;;;;;;;10.63;4.03;;;1.40;99.90;;;;;;4929038;29;20043;-58
2021/01/14 03:06:32;;;;;;;12.70;4.03;;;1.40;99.90;;;;;;4932279;29;20035;-59
2021/01/14 03:08:57;;;;;;;10.25;3.65;;;1.40;99.90;;;;;;4926822;29;20596;-59
2021/01/14 03:11:26;;;;;;;13.70;4.38;;;1.40;99.90;;;;;;4930685;29;20171;-59
2021/01/14 03:13:53;;;;;;;10.68;3.75;;;1.50;99.90;;;;;;4931513;29;20044;-57
2021/01/14 03:16:19;;;;;;;8.05;3.67;;;1.50;99.90;;;;;;4932387;29;20044;-59
2021/01/14 03:18:44;;;;;;;12.25;3.78;;;1.50;99.90;;;;;;4931201;29;20407;-59
2021/01/14 03:21:10;;;;;;;11.70;4.10;;;1.50;99.90;;;;;;4932430;29;20044;-58
2021/01/14 03:23:36;;;;;;;9.65;3.75;;;1.40;99.90;;;;;;4931239;29;20132;-57
2021/01/14 03:26:01;;;;;;;11.40;4.28;;;1.40;99.90;;;;;;4944150;28;20153;-56
2021/01/14 03:28:27;;;;;;;12.60;4.45;;;1.40;99.90;;;;;;5029615;28;20095;-59
2021/01/14 03:30:53;;;;;;;10.35;4.40;;;1.40;99.90;;;;;;5031989;28;20040;-58
2021/01/14 03:33:19;;;;;;;12.73;4.00;;;1.40;99.90;;;;;;5030876;28;20045;-58
2021/01/14 03:35:45;;;;;;;15.05;4.35;;;1.50;99.90;;;;;;5031949;28;20033;-59
2021/01/14 03:38:11;;;;;;;9.88;4.13;;;1.50;99.90;;;;;;5029564;28;20440;-56
2021/01/14 03:40:36;;;;;;;8.32;3.22;;;1.50;99.90;;;;;;5029789;28;20065;-59
2021/01/14 03:43:02;;;;;;;9.93;3.67;;;1.50;99.90;;;;;;5031428;28;20053;-58
2021/01/14 03:45:28;;;;;;;9.23;3.95;;;1.50;99.90;;;;;;5030888;28;20044;-59
2021/01/14 03:47:54;;;;;;;12.18;3.88;;;1.50;99.90;;;;;;5031745;28;20512;-59
2021/01/14 03:50:19;;;;;;;10.18;3.78;;;1.60;99.90;;;;;;5031711;28;20084;-59
2021/01/14 03:52:45;;;;;;;10.60;4.05;;;1.60;99.90;;;;;;5029427;28;20448;-59
2021/01/14 03:55:11;;;;;;;12.07;4.43;;;1.50;99.90;;;;;;5031417;28;20495;-58
2021/01/14 03:57:37;;;;;;;11.32;4.20;;;1.50;99.90;;;;;;5030610;28;20140;-58
2021/01/14 04:00:06;;;;;;;8.40;3.25;;;1.50;99.90;;;;;;5031676;28;20029;-59
2021/01/14 04:02:32;;;;;;;13.85;4.60;;;1.50;99.90;;;;;;5018987;28;20030;-58
2021/01/14 04:04:58;;;;;;;12.68;4.45;;;1.50;99.90;;;;;;5024218;28;20495;-59
2021/01/14 04:07:24;;;;;;;9.52;3.28;;;1.50;99.90;;;;;;5031192;28;20029;-59
2021/01/14 04:09:50;;;;;;;7.45;3.25;;;1.50;99.90;;;;;;5029280;28;20041;-58
2021/01/14 04:12:16;;;;;;;10.68;3.72;;;1.60;99.90;;;;;;5030289;28;20042;-59
2021/01/14 04:14:50;;;;;;;13.65;3.60;;;1.60;99.90;;;;;;5029635;28;20488;-56
2021/01/14 04:17:16;;;;;;;7.82;3.10;;;1.60;99.90;;;;;;5030054;28;20412;-59
2021/01/14 04:19:42;;;;;;;10.02;3.22;;;1.70;99.90;;;;;;5031130;28;20487;-58
2021/01/14 04:22:07;;;;;;;13.85;4.28;;;1.60;99.90;;;;;;5027067;28;20168;-59
2021/01/14 04:24:36;;;;;;;11.02;3.97;;;1.60;99.90;;;;;;5011315;28;20041;-59
2021/01/14 04:27:04;;;;;;;11.40;3.75;;;1.60;99.90;;;;;;5016129;28;20042;-59
2021/01/14 04:29:30;;;;;;;12.45;3.72;;;1.50;99.90;;;;;;5031001;28;20433;-59
2021/01/14 04:31:56;;;;;;;11.90;4.07;;;1.50;99.90;;;;;;5029789;28;20453;-58
2021/01/14 04:34:22;;;;;;;15.45;3.72;;;1.60;99.90;;;;;;5026103;28;20108;-58
2021/01/14 04:36:47;;;;;;;11.73;3.28;;;1.50;99.90;;;;;;5029359;28;20141;-59
2021/01/14 04:39:13;;;;;;;9.57;3.95;;;1.50;99.90;;;;;;5030733;28;20029;-59
2021/01/14 04:41:50;;;;;;;7.85;3.53;;;1.50;99.90;;;;;;5030014;28;20041;-59
2021/01/14 04:44:16;;;;;;;11.23;3.53;;;1.40;99.90;;;;;;5015228;28;20073;-59
2021/01/14 04:46:48;;;;;;;12.10;3.42;;;1.40;99.90;;;;;;5010173;28;20102;-60
2021/01/14 04:49:16;;;;;;;9.80;4.00;;;1.50;99.90;;;;;;5030550;28;20060;-58
2021/01/14 04:51:45;;;;;;;13.43;4.25;;;1.50;99.90;;;;;;5030460;28;20045;-58
2021/01/14 04:54:14;;;;;;;7.60;3.55;;;1.50;99.90;;;;;;5026839;28;20036;-57
2021/01/14 04:56:40;;;;;;;11.75;4.95;;;1.50;99.90;;;;;;5010871;28;20073;-58
2021/01/14 04:59:06;;;;;;;15.95;4.88;;;1.50;99.90;;;;;;5030494;28;20037;-57
2021/01/14 05:01:41;;;;;;;12.15;5.13;;;1.40;99.90;;;;;;5030891;28;20041;-58
2021/01/14 05:04:09;;;;;;;16.50;4.00;;;1.40;99.90;;;;;;5028417;28;20069;-58
2021/01/14 05:06:38;;;;;;;10.20;3.50;;;1.50;99.90;;;;;;5012137;28;20279;-58
2021/01/14 05:09:06;;;;;;;13.02;3.50;;;1.40;99.90;;;;;;5009526;28;20037;-58
2021/01/14 05:11:45;;;;;;;10.77;3.70;;;1.50;99.90;;;;;;5029695;28;20029;-58
2021/01/14 05:14:10;;;;;;;10.70;3.78;;;1.50;99.90;;;;;;5028341;28;20033;-58
2021/01/14 05:16:36;;;;;;;8.90;3.47;;;1.50;99.90;;;;;;5016515;28;20477;-58
2021/01/14 05:19:03;;;;;;;8.65;3.25;;;1.50;99.90;;;;;;5009409;28;20038;-57
2021/01/14 05:21:32;;;;;;;9.77;3.67;;;1.50;99.90;;;;;;5029359;28;20557;-58
2021/01/14 05:24:08;;;;;;;11.80;4.72;;;1.50;99.90;;;;;;5029018;28;20215;-58
2021/01/14 05:26:34;;;;;;;8.57;3.13;;;1.60;99.90;;;;;;5022188;28;20172;-55
2021/01/14 05:29:14;;;;;;;11.25;4.30;;;1.60;99.90;;;;;;5009969;28;20041;-58
2021/01/14 05:31:40;;;;;;;9.73;4.20;;;1.60;99.90;;;;;;4993955;28;20069;-58
2021/01/14 05:34:06;;;;;;;11.80;3.83;;;1.70;99.90;;;;;;5029635;28;20104;-58
2021/01/14 05:36:53;;;;;;;11.45;4.30;;;1.60;99.90;;;;;;5027494;28;20496;-59
2021/01/14 05:39:20;;;;;;;10.55;3.45;;;1.60;99.90;;;;;;5009941;28;20071;-58
2021/01/14 05:41:50;;;;;;;11.45;3.35;;;1.60;99.90;;;;;;5015305;28;20037;-58
2021/01/14 05:44:16;;;;;;;12.63;4.15;;;1.70;99.90;;;;;;5029788;28;20405;-58
2021/01/14 05:46:42;;;;;;;15.30;5.88;;;1.70;99.90;;;;;;5015384;28;20037;-58
2021/01/14 05:49:13;;;;;;;14.48;5.25;;;1.60;99.90;;;;;;5009045;28;20038;-58
2021/01/14 05:51:39;;;;;;;18.23;5.25;;;1.60;99.90;;;;;;5025096;28;20049;-58
2021/01/14 05:54:14;;;;;;;12.20;5.20;;;1.60;99.90;;;;;;5029295;28;20037;-58
2021/01/14 05:57:00;;;;;;;9.27;4.13;;;1.60;99.90;;;;;;5026560;28;20091;-59
2021/01/14 05:59:32;;;;;;;;;;;1.60;99.90;;;;;;5027721;28;20037;-57
2021/01/14 06:02:00;;;;;;;11.95;4.53;;;1.60;99.90;;;;;;5018111;28;20007;-58
2021/01/14 06:04:30;;;;;;;9.85;4.82;;;1.60;99.90;;;;;;5009359;28;20030;-58
2021/01/14 06:07:02;;;;;;;15.52;5.15;;;1.60;99.90;;;;;;5020434;28;20044;-59
2021/01/14 06:09:28;;;;;;;11.75;4.65;;;1.60;99.90;;;;;;5029300;28;20449;-59
2021/01/14 06:12:07;;;;;;;11.65;4.15;;;1.60;99.90;;;;;;5020384;28;20038;-59
2021/01/14 06:14:33;;;;;;;12.52;4.40;;;1.60;99.90;;;;;;5012631;28;20496;-59
2021/01/14 06:17:04;;;;;;;8.05;3.55;;;1.60;99.90;;;;;;5023557;28;20053;-59
2021/01/14 06:19:30;;;;;;;10.85;3.85;;;1.50;99.90;;;;;;5018549;28;20135;-58
2021/01/14 06:21:57;;;;;;;10.95;4.82;;;1.50;99.90;;;;;;5009326;28;20034;-58
2021/01/14 06:24:26;;;;;;;15.25;5.35;;;1.50;99.90;;;;;;5016256;28;20025;-56
2021/01/14 06:27:09;;;;;;;9.93;4.75;;;1.50;99.90;;;;;;5028855;28;20083;-58
2021/01/14 06:29:37;;;;;;;18.67;5.20;;;1.40;99.90;;;;;;5025947;28;20116;-59
2021/01/14 06:32:17;;;;;;;11.85;4.65;;;1.50;99.90;;;;;;5020695;28;20219;-57
2021/01/14 06:34:51;;;;;;;19.10;4.72;;;1.50;99.90;;;;;;5026349;28;20034;-57
2021/01/14 06:37:21;;;;;;;13.13;5.35;;;1.50;99.90;;;;;;5013014;28;20472;-58
2021/01/14 06:39:56;;;;;;;18.85;5.10;;;1.50;99.90;;;;;;5025199;28;20029;-58
2021/01/14 06:42:30;;;;;;;12.73;5.35;;;1.50;99.90;;;;;;5027944;28;20060;-59
2021/01/14 06:45:00;;;;;;;14.40;5.45;;;1.50;99.90;;;;;;5028558;28;20113;-56
2021/01/14 06:47:40;;;;;;;12.70;6.22;;;1.50;99.90;;;;;;5026647;28;20104;-58
2021/01/14 06:50:15;;;;;;;13.95;5.60;;;1.50;99.90;;;;;;5028643;28;20118;-59
2021/01/14 06:52:51;;;;;;;14.60;5.18;;;1.40;99.90;;;;;;5027244;28;20378;-59
2021/01/14 06:55:18;;;;;;;;;;;1.40;99.90;;;;;;5024160;28;20124;-58
2021/01/14 06:58:03;;;;;;;14.18;5.18;;;1.50;99.90;;;;;;5009341;28;19940;-60
2021/01/14 07:00:30;;;;;;;11.52;4.60;;;1.40;99.90;;;;;;5022435;28;20164;-58
2021/01/14 07:03:20;;;;;;;12.20;5.55;;;1.40;99.90;;;;;;5027032;28;20041;-59
2021/01/14 07:05:52;;;;;;;12.63;5.95;;;1.30;99.90;;;;;;5024046;28;20157;-58
2021/01/14 07:08:39;;;;;;;19.08;6.82;;;1.40;99.90;;;;;;5025360;28;20021;-60
2021/01/14 07:11:11;;;;;;;17.98;7.20;;;1.40;99.90;;;;;;5027200;28;20420;-58
2021/01/14 07:13:39;;;;;;;12.95;6.65;;;1.30;99.90;;;;;;5028194;28;20072;-58
2021/01/14 07:16:06;;;;;;;11.68;4.82;;;1.40;99.90;;;;;;5026673;28;20630;-57
2021/01/14 07:18:34;;;;;;;13.88;4.85;;;1.40;99.90;;;;;;5025661;28;20488;-58
2021/01/14 07:21:24;;;;;;;12.32;5.25;;;1.40;99.90;;;;;;5024037;28;20428;-58
2021/01/14 07:24:22;;;;;;;11.95;4.88;;;1.50;99.90;;;;;;5009314;28;20452;-58
2021/01/14 07:26:58;;;;;;;15.23;4.70;;;1.50;99.90;;;;;;5016441;28;20393;-59
2021/01/14 07:29:29;;;;;;;16.05;5.32;;;1.50;99.90;;;;;;5028534;28;20037;-59
2021/01/14 07:31:59;;;;;;;13.43;5.90;;;1.40;99.90;;;;;;5025942;28;20041;-59
2021/01/14 07:34:44;;;;;;;16.08;6.35;;;1.50;99.90;;;;;;5008696;28;20033;-58
2021/01/14 07:37:20;;;;;;;13.32;5.78;;;1.50;99.90;;;;;;5020160;28;20509;-58
2021/01/14 07:39:57;;;;;;;12.43;6.30;;;1.60;99.90;;;;;;5022695;28;20107;-60
2021/01/14 07:42:33;;;;;;;14.13;6.28;;;1.60;99.90;;;;;;5026721;28;20457;-59
2021/01/14 07:45:15;;;;;;;11.30;5.88;;;1.60;99.90;;;;;;5026714;28;20391;-59
2021/01/14 07:47:41;;;;;;;11.15;4.95;;;1.60;99.90;;;;;;5028588;28;20038;-58
2021/01/14 07:50:19;;;;;;;11.82;5.03;;;1.60;99.90;;;;;;5028866;28;20036;-56
2021/01/14 07:52:53;;;;;;;13.48;6.63;;;1.70;99.90;;;;;;5031012;28;20568;-59
2021/01/14 07:55:26;;;;;;;20.73;8.23;;;1.60;99.90;;;;;;5029862;28;20037;-58
2021/01/14 07:58:23;;;;;;;21.77;8.45;;;1.70;99.90;;;;;;5020704;28;20029;-58
2021/01/14 08:01:02;;;;;;;15.80;7.25;;;1.80;99.90;;;;;;5022906;28;20167;-55
2021/01/14 08:03:39;;;;;;;13.55;5.85;;;1.80;99.90;;;;;;5030893;28;20077;-57
2021/01/14 08:06:22;;;;;;;12.00;5.55;;;1.90;99.90;;;;;;5027340;28;20326;-60
2021/01/14 08:08:58;;;;;;;16.35;6.82;;;2.00;99.90;;;;;;5028147;28;20029;-56
2021/01/14 08:11:33;;;;;;;;;;;2.10;99.90;;;;;;5032379;28;20038;-59
2021/01/14 08:14:18;;;;;;;12.32;5.60;;;2.10;99.90;;;;;;5031762;28;19909;-58
2021/01/14 08:16:56;;;;;;;12.45;5.85;;;2.20;99.90;;;;;;5031162;28;20507;-58
2021/01/14 08:19:36;;;;;;;13.93;5.32;;;2.20;99.90;;;;;;5031264;28;20029;-57
2021/01/14 08:22:20;;;;;;;11.45;5.53;;;2.30;99.90;;;;;;5031179;28;20140;-58
2021/01/14 08:24:52;;;;;;;12.43;5.97;;;2.30;99.90;;;;;;5031002;28;20029;-58
2021/01/14 08:27:21;;;;;;;17.20;5.93;;;2.40;99.90;;;;;;5031477;28;20033;-58
2021/01/14 08:30:24;;;;;;;13.05;5.78;;;2.30;99.90;;;;;;5031228;28;20029;-59
2021/01/14 08:33:05;;;;;;;12.13;5.50;;;2.40;99.90;;;;;;5030799;28;20148;-58
2021/01/14 08:35:41;;;;;;;12.65;5.00;;;2.30;99.90;;;;;;5025503;28;20429;-57
2021/01/14 08:38:12;;;;;;;12.35;6.13;;;2.40;99.90;;;;;;5024120;28;20056;-58
2021/01/14 08:40:39;;;;;;;11.70;5.80;;;2.50;99.90;;;;;;5030530;28;20469;-58
2021/01/14 08:43:09;;;;;;;10.88;5.35;;;2.60;99.90;;;;;;5030616;28;20108;-58
2021/01/14 08:46:00;;;;;;;12.18;5.00;;;2.70;99.90;;;;;;5030948;28;20038;-58
2021/01/14 08:48:30;;;;;;;12.23;5.82;;;2.70;99.90;;;;;;5023550;28;20092;-59
2021/01/14 08:50:56;;;;;;;12.05;5.25;;;2.80;99.90;;;;;;5030434;28;20096;-59
2021/01/14 08:53:33;;;;;;;14.15;5.63;;;2.90;99.90;;;;;;5030756;28;20160;-59
2021/01/14 08:56:31;;;;;;;14.43;6.32;;;3.00;99.90;;;;;;5030561;28;20560;-59
2021/01/14 08:59:15;;;;;;;14.77;6.47;;;3.00;99.90;;;;;;4996793;28;20119;-58
2021/01/14 09:01:41;;;;;;;17.02;6.93;;;3.10;99.90;;;;;;5029197;28;20037;-58
2021/01/14 09:04:10;;;;;;;13.20;6.05;;;3.20;99.90;;;;;;5030372;28;20099;-59
2021/01/14 09:06:38;;;;;;;13.18;6.50;;;3.30;99.90;;;;;;5025292;28;20048;-57
2021/01/14 09:09:06;;;;;;;15.63;6.40;;;3.30;99.90;;;;;;5012929;28;20121;-57
2021/01/14 09:11:33;;;;;;;15.63;6.60;;;3.30;99.90;;;;;;5010300;28;20061;-58
2021/01/14 09:14:06;;;;;;;13.68;5.75;;;3.40;99.90;;;;;;5009974;28;20568;-59
2021/01/14 09:16:33;;;;;;;13.52;5.82;;;3.50;99.90;;;;;;5010390;28;20192;-58
2021/01/14 09:19:00;;;;;;;13.20;6.05;;;3.60;99.90;;;;;;5010265;28;20443;-58
2021/01/14 09:21:26;;;;;;;10.13;5.32;;;3.60;99.90;;;;;;5010221;28;20030;-59
2021/01/14 09:23:52;;;;;;;13.45;6.72;;;3.70;99.90;;;;;;5009999;28;20444;-59
2021/01/14 09:26:20;;;;;;;14.68;6.43;;;3.80;99.90;;;;;;5010530;28;20485;-59
2021/01/14 09:28:53;;;;;;;16.90;6.30;;;3.90;99.90;;;;;;5013931;28;20075;-58
2021/01/14 09:31:33;;;;;;;11.93;5.97;;;4.10;99.90;;;;;;5010478;28;20162;-59
2021/01/14 09:34:00;;;;;;;12.23;5.80;;;4.20;99.90;;;;;;5010097;28;20075;-58
2021/01/14 09:36:26;;;;;;;12.43;6.03;;;4.20;99.90;;;;;;5010058;28;20437;-59
2021/01/14 09:38:57;;;;;;;14.57;6.13;;;4.20;99.90;;;;;;5009796;28;20030;-59
2021/01/14 09:41:30;;;;;;;13.27;5.95;;;4.30;99.90;;;;;;5009741;28;20026;-59
2021/01/14 09:44:01;;;;;;;14.30;6.85;;;4.50;99.90;;;;;;5009694;28;20470;-59
2021/01/14 09:46:29;;;;;;;14.40;6.35;;;4.60;99.90;;;;;;5009781;28;20030;-59
2021/01/14 09:49:01;;;;;;;12.65;6.45;;;4.70;99.90;;;;;;5009694;28;20494;-59
2021/01/14 09:51:43;;;;;;;12.82;6.13;;;4.90;99.90;;;;;;5009381;28;20414;-58
2021/01/14 09:54:10;;;;;;;12.23;6.68;;;4.90;99.90;;;;;;5009546;28;20038;-58
2021/01/14 09:56:50;;;;;;;12.73;6.53;;;5.00;99.90;;;;;;5009727;28;20029;-57
2021/01/14 09:59:42;;;;;;;11.98;6.53;;;5.10;99.90;;;;;;5009736;28;20056;-58
2021/01/14 10:02:22;;;;;;;17.83;8.15;;;5.10;99.90;;;;;;5006538;28;20030;-58
2021/01/14 10:05:11;;;;;;;13.95;6.65;;;5.40;99.90;;;;;;5009573;28;20045;-59
2021/01/14 10:07:39;;;;;;;12.02;6.70;;;5.50;99.90;;;;;;5009319;28;20038;-57
2021/01/14 10:10:07;;;;;;;10.57;5.50;;;5.60;99.90;;;;;;5009560;28;20037;-58
2021/01/14 10:12:36;;;;;;;11.60;6.05;;;5.60;99.90;;;;;;5008747;28;20493;-58
2021/01/14 10:15:20;;;;;;;13.20;6.88;;;5.80;99.90;;;;;;5009236;28;20036;-59
2021/01/14 10:17:46;;;;;;;9.23;4.78;;;5.90;99.90;;;;;;5007557;28;20630;-60
2021/01/14 10:20:13;;;;;;;10.45;4.97;;;5.90;99.90;;;;;;5026875;28;20204;-59
2021/01/14 10:22:48;;;;;;;15.73;5.38;;;5.90;99.90;;;;;;5021291;28;20044;-59
2021/01/14 10:25:15;;;;;;;12.30;6.00;;;6.00;99.90;;;;;;5025195;28;20045;-59
2021/01/14 10:27:41;;;;;;;12.80;6.30;;;6.00;99.90;;;;;;5028185;28;20428;-57
2021/01/14 10:30:22;;;;;;;11.60;5.88;;;6.20;99.90;;;;;;5027875;28;20564;-59
2021/01/14 10:32:49;;;;;;;9.40;5.60;;;6.20;99.90;;;;;;5017459;28;20048;-60
2021/01/14 10:35:22;;;;;;;10.35;6.00;;;6.30;99.90;;;;;;5008876;28;20060;-59
2021/01/14 10:37:59;;;;;;;10.75;5.65;;;6.50;99.90;;;;;;5027328;28;20037;-59
2021/01/14 10:40:31;;;;;;;9.55;5.68;;;6.50;99.90;;;;;;5028530;28;20504;-59
2021/01/14 10:42:56;;;;;;;13.77;6.50;;;6.80;99.90;;;;;;5023893;28;20053;-59
2021/01/14 10:45:24;;;;;;;11.95;6.40;;;6.80;99.90;;;;;;5008835;28;20117;-59
2021/01/14 10:47:53;;;;;;;19.17;7.57;;;6.90;99.90;;;;;;5008522;28;20516;-59
2021/01/14 10:50:25;;;;;;;11.88;5.65;;;7.00;99.90;;;;;;5008568;28;20441;-59
2021/01/14 10:53:02;;;;;;;9.88;6.43;;;7.20;99.90;;;;;;5009102;28;20057;-59
2021/01/14 10:55:28;;;;;;;12.02;6.03;;;7.20;99.30;;;;;;5007392;28;20060;-59
2021/01/14 10:57:58;;;;;;;11.95;4.40;;;7.20;99.00;;;;;;5022621;28;20034;-59
2021/01/14 11:00:25;;;;;;;8.85;5.07;;;7.20;98.80;;;;;;5027003;28;20428;-59
2021/01/14 11:03:08;;;;;;;11.07;4.70;;;7.20;98.60;;;;;;5015374;28;20037;-59
2021/01/14 11:05:54;;;;;;;15.20;5.82;;;7.20;98.50;;;;;;5008471;28;20124;-59
2021/01/14 11:08:25;;;;;;;11.02;5.47;;;7.20;99.40;;;;;;5008605;28;20044;-59
2021/01/14 11:11:05;;;;;;;7.55;4.68;;;7.20;98.60;;;;;;5008360;28;20366;-59
2021/01/14 11:13:48;;;;;;;9.88;5.03;;;7.00;99.70;;;;;;5008716;28;20096;-60
2021/01/14 11:16:21;;;;;;;11.70;6.53;;;6.90;99.70;;;;;;5008724;28;20033;-58
2021/01/14 11:18:51;;;;;;;10.65;5.97;;;6.90;99.40;;;;;;5008584;28;20501;-58
2021/01/14 11:21:25;;;;;;;10.90;5.78;;;7.20;97.50;;;;;;5008387;28;20033;-59
2021/01/14 11:23:50;;;;;;;9.18;5.40;;;7.30;97.30;;;;;;5009858;28;20030;-59
2021/01/14 11:26:18;;;;;;;10.82;5.93;;;7.20;97.50;;;;;;5012357;28;20037;-59
2021/01/14 11:28:44;;;;;;;10.25;5.78;;;7.20;98.30;;;;;;5012436;28;20026;-59
2021/01/14 11:31:15;;;;;;;11.00;6.25;;;7.20;98.50;;;;;;5012236;28;20037;-59
2021/01/14 11:33:41;;;;;;;11.98;5.88;;;7.30;98.90;;;;;;5012272;28;20037;-59
2021/01/14 11:36:11;;;;;;;11.32;5.22;;;7.40;99.00;;;;;;5012180;28;20037;-59
2021/01/14 11:38:40;;;;;;;18.55;6.28;;;7.50;99.50;;;;;;5012181;28;20030;-59
2021/01/14 11:41:05;;;;;;;10.10;5.07;;;7.50;99.50;;;;;;5011967;28;20038;-59
2021/01/14 11:43:33;;;;;;;11.90;4.57;;;7.50;99.90;;;;;;5011875;28;20102;-59
2021/01/14 11:45:59;;;;;;;9.32;4.75;;;7.60;99.00;;;;;;5012153;28;20129;-60
2021/01/14 11:48:24;;;;;;;8.48;4.25;;;7.60;99.90;;;;;;5012360;28;20397;-59
2021/01/14 11:50:50;;;;;;;7.75;4.47;;;7.60;99.50;;;;;;5011815;28;20038;-59
2021/01/14 11:53:16;;;;;;;7.00;4.65;;;7.70;99.90;;;;;;5012024;28;20151;-59
2021/01/14 11:55:42;;;;;;;11.55;4.47;;;7.70;99.40;;;;;;5011981;28;20390;-59
2021/01/14 11:58:08;;;;;;;5.18;3.10;;;7.70;99.90;;;;;;5011774;28;20088;-59
2021/01/14 12:00:36;;;;;;;8.10;2.85;;;7.80;99.50;;;;;;5012219;28;20069;-58
2021/01/14 12:03:06;;;;;;;5.40;2.85;;;7.90;98.70;;;;;;5011934;28;20026;-59
2021/01/14 12:05:35;;;;;;;7.20;2.25;;;8.00;96.60;;;;;;5014579;28;20030;-59
2021/01/14 12:08:01;;;;;;;4.30;1.77;;;8.10;95.10;;;;;;5019663;28;20436;-58
2021/01/14 12:10:27;;;;;;;2.30;0.43;;;8.30;93.90;;;;;;5031424;28;20116;-59
2021/01/14 12:12:52;;;;;;;2.00;0.30;;;8.60;79.80;;;;;;5031116;28;20124;-57
2021/01/14 12:15:18;;;;;;;0.50;0.13;;;9.40;65.30;;;;;;5031214;28;20797;-56
2021/01/14 12:17:44;;;;;;;1.98;0.20;;;9.70;65.00;;;;;;5029365;28;20037;-58
2021/01/14 12:20:10;;;;;;;0.98;0.20;;;10.00;63.50;;;;;;5029604;28;20072;-56
2021/01/14 12:22:39;;;;;;;0.60;0.30;;;9.90;60.30;;;;;;5029325;28;20029;-57
2021/01/14 12:25:14;;;;;;;1.40;0.20;;;9.90;59.80;;;;;;5016752;28;20041;-55
2021/01/14 12:27:41;;;;;;;0.80;0.20;;;9.90;58.60;;;;;;5031270;28;20037;-58
2021/01/14 12:30:08;;;;;;;0.50;0.20;;;9.90;60.60;;;;;;5029036;28;20103;-55
2021/01/14 12:32:34;;;;;;;1.55;0.40;;;9.80;56.80;;;;;;5031017;28;20116;-58
2021/01/14 12:35:01;;;;;;;0.70;0.20;;;9.70;60.10;;;;;;5027854;28;20545;-59
2021/01/14 12:37:34;;;;;;;0.93;0.20;;;9.60;59.60;;;;;;5021418;28;20500;-55
2021/01/14 12:40:00;;;;;;;1.70;0.20;;;9.50;57.00;;;;;;5021567;28;20111;-58
2021/01/14 12:42:26;;;;;;;0.47;0.15;;;9.70;59.60;;;;;;5026695;28;20517;-58
2021/01/14 12:44:52;;;;;;;0.98;0.17;;;9.80;54.50;;;;;;5030727;28;20037;-57
2021/01/14 12:47:18;;;;;;;0.45;0.10;;;9.90;54.30;;;;;;5030053;28;20030;-56
2021/01/14 12:49:44;;;;;;;0.30;0.10;;;10.10;49.50;;;;;;5029127;28;21965;-55
2021/01/14 12:52:09;;;;;;;0.40;0.10;;;10.20;51.30;;;;;;5026438;28;20575;-58
2021/01/14 12:54:35;;;;;;;0.30;0.10;;;10.30;48.10;;;;;;5022561;28;20378;-58
2021/01/14 12:57:00;;;;;;;0.13;0.00;;;10.40;48.40;;;;;;5021558;28;20034;-58
2021/01/14 12:59:26;;;;;;;0.45;0.10;;;10.40;47.90;;;;;;5024300;28;20126;-57
2021/01/14 13:01:52;;;;;;;0.20;0.03;;;10.20;47.10;;;;;;5011465;28;20321;-58
2021/01/14 13:04:18;;;;;;;0.30;0.00;;;10.50;47.30;;;;;;5024918;28;20026;-57
2021/01/14 13:06:44;;;;;;;0.22;0.00;;;10.50;44.50;;;;;;5027490;28;20116;-56
2021/01/14 13:09:11;;;;;;;0.30;0.00;;;10.60;45.60;;;;;;5028642;28;20041;-57
2021/01/14 13:11:41;;;;;;;0.20;0.00;;;10.50;46.70;;;;;;5027218;28;20040;-55